This is the latest recevied weather packets stored in our database for station/object WA6ODQ-13. If no packets are shown the sender has not sent any weather packets the latest 10 day(s).
| Time | Temp. | Humidity | Pressure | Rain* | Wind** | Luminosity | Snow |
|---|---|---|---|---|---|---|---|
| 1777508499 | 26.67° C | 48% | 1012.7 hPa | 0 mm | - | 281 W/m² | - |
| 1777507892 | 26.67° C | 47% | 1012.8 hPa | 0 mm | - | 310 W/m² | - |
| 1777507589 | 26.67° C | 47% | 1012.9 hPa | 0 mm | - | 323 W/m² | - |
| 1777506377 | 26.67° C | 48% | 1013 hPa | 0 mm | - | 380 W/m² | - |
| 1777505769 | 26.67° C | 47% | 1012.9 hPa | 0 mm | - | 404 W/m² | - |
| 1777501220 | 27.22° C | 44% | 1013.8 hPa | 0 mm | - | 588 W/m² | - |
| 1777498189 | 27.22° C | 43% | 1014.2 hPa | 0 mm | - | 670 W/m² | - |
| 1777496369 | 27.22° C | 42% | 1014.5 hPa | 0 mm | - | 702 W/m² | - |
| 1777495153 | 26.67° C | 41% | 1014.9 hPa | 0 mm | - | 719 W/m² | - |
| 1777494851 | 26.67° C | 41% | 1014.8 hPa | 0 mm | - | 721 W/m² | - |
| 1777494548 | 26.67° C | 44% | 1015.2 hPa | 0 mm | - | 721 W/m² | - |
| 1777494246 | 26.67° C | 44% | 1014.9 hPa | 0 mm | - | 724 W/m² | - |
| 1777493942 | 26.67° C | 45% | 1015 hPa | 0 mm | - | 723 W/m² | - |
| 1777493337 | 26.67° C | 46% | 1015.4 hPa | 0 mm | - | 727 W/m² | - |
| 1777493033 | 26.11° C | 48% | 1015.2 hPa | 0 mm | - | 722 W/m² | - |
| 1777492731 | 26.11° C | 46% | 1015.3 hPa | 0 mm | - | 724 W/m² | - |
| 1777491516 | 25.56° C | 42% | 1015.5 hPa | 0 mm | - | 727 W/m² | - |
| 1777491214 | 25.56° C | 42% | 1015.6 hPa | 0 mm | - | 724 W/m² | - |
| 1777490909 | 25.56° C | 43% | 1015.6 hPa | 0 mm | - | 721 W/m² | - |
| 1777490606 | 25.56° C | 43% | 1015.7 hPa | 0 mm | - | 718 W/m² | - |
| 1777490302 | 24.44° C | 45% | 1015.8 hPa | 0 mm | - | 715 W/m² | - |
| 1777490000 | 24.44° C | 45% | 1016 hPa | 0 mm | - | 709 W/m² | - |
| 1777489698 | 24.44° C | 45% | 1016 hPa | 0 mm | - | 706 W/m² | - |
| 1777488788 | 25.56° C | 44% | 1016.2 hPa | 0 mm | - | 690 W/m² | - |
| 1777487881 | 25° C | 48% | 1016.4 hPa | 0 mm | - | 671 W/m² | - |
* Rain latest hour (hover to see other rain measurements)
** Current wind speed in m/s (hover to see current wind gust speed)